Suhaja, Russia
Current Conditions -  °F | °C
As of 3:00 AM on Sunday 21 Dec 2014 (Local Time) from UIUU Reporting Station
Snow Showers Snow Showers  
Wind Chill: 11°   Ceiling: 2100
Heat Index: 18°   Visibility: 1.3mi
Dew Point: 16°   Wind: 4mph
Humidity: 93%   Direction: 280°W
Pressure: 30.18"   Gusts: NA
Location:  52.57°N, 107.13°E
Report Text: UIUU 201900Z 28002MPS 2200 -SHSN OVC021CB M08/M09 Q1022 NOSIGRMK QFE721/0962 26497010
Loading
Personal Weather Stations






























Interactive Weather Map New forecast layout! Learn more

10-Day Weather Forecast

Advertisements
Track Severe Weather on mobile